sensor_id;sensor_type;location;lat;lon;timestamp;pressure;altitude;pressure_sealevel;temperature;humidity
56630;BME280;42502;40.732;-74.254;2023-04-01T00:00:00;100469.44;;;19.85;34.11
56630;BME280;42502;40.732;-74.254;2023-04-01T00:02:01;100457.75;;;19.83;34.38
56630;BME280;42502;40.732;-74.254;2023-04-01T00:04:02;100453.78;;;19.84;34.34
56630;BME280;42502;40.732;-74.254;2023-04-01T00:06:03;100447.38;;;19.83;34.52
56630;BME280;42502;40.732;-74.254;2023-04-01T00:08:04;100461.13;;;19.88;34.56
56630;BME280;42502;40.732;-74.254;2023-04-01T00:10:10;100459.16;;;19.89;34.17
56630;BME280;42502;40.732;-74.254;2023-04-01T00:12:11;100452.72;;;19.88;34.16
56630;BME280;42502;40.732;-74.254;2023-04-01T00:14:12;100443.50;;;19.88;34.39
56630;BME280;42502;40.732;-74.254;2023-04-01T00:16:13;100433.56;;;19.91;34.33
56630;BME280;42502;40.732;-74.254;2023-04-01T00:18:15;100435.53;;;19.90;34.12
56630;BME280;42502;40.732;-74.254;2023-04-01T00:20:19;100436.38;;;19.91;34.32
56630;BME280;42502;40.732;-74.254;2023-04-01T00:22:20;100436.03;;;19.92;34.18
56630;BME280;42502;40.732;-74.254;2023-04-01T00:24:21;100429.22;;;19.93;34.26
56630;BME280;42502;40.732;-74.254;2023-04-01T00:26:28;100422.00;;;19.92;34.37
56630;BME280;42502;40.732;-74.254;2023-04-01T00:28:29;100414.75;;;19.91;34.10
56630;BME280;42502;40.732;-74.254;2023-04-01T00:30:33;100407.63;;;19.94;34.29
56630;BME280;42502;40.732;-74.254;2023-04-01T00:32:34;100416.03;;;19.94;34.16
56630;BME280;42502;40.732;-74.254;2023-04-01T00:34:35;100413.59;;;19.92;34.17
56630;BME280;42502;40.732;-74.254;2023-04-01T00:36:37;100421.28;;;19.95;34.35
56630;BME280;42502;40.732;-74.254;2023-04-01T00:38:39;100416.41;;;19.92;34.29
56630;BME280;42502;40.732;-74.254;2023-04-01T00:40:46;100415.69;;;19.95;34.15
56630;BME280;42502;40.732;-74.254;2023-04-01T00:42:47;100409.25;;;19.95;34.03
56630;BME280;42502;40.732;-74.254;2023-04-01T00:44:50;100400.47;;;19.96;33.94
56630;BME280;42502;40.732;-74.254;2023-04-01T00:46:52;100402.09;;;19.97;34.33
56630;BME280;42502;40.732;-74.254;2023-04-01T00:48:54;100402.47;;;19.96;34.13
56630;BME280;42502;40.732;-74.254;2023-04-01T00:53:07;100407.72;;;19.97;34.05
56630;BME280;42502;40.732;-74.254;2023-04-01T00:55:12;100408.06;;;19.96;34.12
56630;BME280;42502;40.732;-74.254;2023-04-01T00:57:35;100408.88;;;19.96;34.12
56630;BME280;42502;40.732;-74.254;2023-04-01T00:59:43;100410.16;;;19.99;33.95
56630;BME280;42502;40.732;-74.254;2023-04-01T01:01:46;100400.47;;;19.96;34.28
56630;BME280;42502;40.732;-74.254;2023-04-01T01:03:47;100413.78;;;19.99;34.15
56630;BME280;42502;40.732;-74.254;2023-04-01T01:06:05;100422.19;;;19.99;34.28
56630;BME280;42502;40.732;-74.254;2023-04-01T01:10:39;100388.53;;;19.99;34.50
56630;BME280;42502;40.732;-74.254;2023-04-01T01:13:16;100404.56;;;19.99;34.21
56630;BME280;42502;40.732;-74.254;2023-04-01T01:22:36;100403.03;;;20.01;34.39
56630;BME280;42502;40.732;-74.254;2023-04-01T01:27:02;100394.97;;;20.00;34.25
56630;BME280;42502;40.732;-74.254;2023-04-01T01:36:12;100392.63;;;20.02;34.06
56630;BME280;42502;40.732;-74.254;2023-04-01T01:38:16;100385.84;;;20.03;34.25
56630;BME280;42502;40.732;-74.254;2023-04-01T01:40:19;100390.19;;;20.00;34.29
56630;BME280;42502;40.732;-74.254;2023-04-01T01:42:24;100380.25;;;20.03;34.12
56630;BME280;42502;40.732;-74.254;2023-04-01T01:44:28;100366.09;;;19.99;34.28
56630;BME280;42502;40.732;-74.254;2023-04-01T01:46:31;100363.41;;;20.03;34.13
56630;BME280;42502;40.732;-74.254;2023-04-01T01:48:33;100362.59;;;20.02;34.05
56630;BME280;42502;40.732;-74.254;2023-04-01T01:50:35;100355.72;;;20.00;33.95
56630;BME280;42502;40.732;-74.254;2023-04-01T01:52:42;100359.59;;;19.95;34.13
56630;BME280;42502;40.732;-74.254;2023-04-01T01:54:51;100360.06;;;19.97;34.13
56630;BME280;42502;40.732;-74.254;2023-04-01T01:57:06;100364.50;;;19.98;33.94
56630;BME280;42502;40.732;-74.254;2023-04-01T01:59:09;100363.31;;;19.99;34.00
56630;BME280;42502;40.732;-74.254;2023-04-01T02:01:16;100358.88;;;19.98;34.06
56630;BME280;42502;40.732;-74.254;2023-04-01T02:03:21;100354.44;;;19.97;34.24
56630;BME280;42502;40.732;-74.254;2023-04-01T02:05:25;100334.00;;;19.97;34.16
56630;BME280;42502;40.732;-74.254;2023-04-01T02:07:31;100338.78;;;19.96;33.84
56630;BME280;42502;40.732;-74.254;2023-04-01T02:09:33;100357.59;;;19.96;33.83
56630;BME280;42502;40.732;-74.254;2023-04-01T02:11:57;100353.16;;;19.95;33.99
56630;BME280;42502;40.732;-74.254;2023-04-01T02:14:23;100334.72;;;19.94;34.01
56630;BME280;42502;40.732;-74.254;2023-04-01T02:18:48;100323.88;;;19.92;33.96
56630;BME280;42502;40.732;-74.254;2023-04-01T02:20:51;100321.88;;;19.93;33.93
56630;BME280;42502;40.732;-74.254;2023-04-01T02:22:54;100318.28;;;19.92;34.01
56630;BME280;42502;40.732;-74.254;2023-04-01T02:25:04;100320.59;;;19.90;34.07
56630;BME280;42502;40.732;-74.254;2023-04-01T02:27:07;100316.63;;;19.91;33.96
56630;BME280;42502;40.732;-74.254;2023-04-01T02:29:12;100311.38;;;19.90;34.13
56630;BME280;42502;40.732;-74.254;2023-04-01T02:31:14;100304.97;;;19.89;34.16
56630;BME280;42502;40.732;-74.254;2023-04-01T02:33:22;100301.25;;;19.85;33.88
56630;BME280;42502;40.732;-74.254;2023-04-01T02:35:23;100304.13;;;19.88;33.73
56630;BME280;42502;40.732;-74.254;2023-04-01T02:37:27;100296.91;;;19.87;34.13
56630;BME280;42502;40.732;-74.254;2023-04-01T02:39:28;100296.09;;;19.87;33.85
56630;BME280;42502;40.732;-74.254;2023-04-01T02:41:29;100296.09;;;19.87;33.89
56630;BME280;42502;40.732;-74.254;2023-04-01T02:43:30;100292.47;;;19.86;33.98
56630;BME280;42502;40.732;-74.254;2023-04-01T02:45:31;100288.88;;;19.86;33.97
56630;BME280;42502;40.732;-74.254;2023-04-01T02:47:32;100272.84;;;19.86;33.92
56630;BME280;42502;40.732;-74.254;2023-04-01T02:49:33;100272.06;;;19.86;34.21
56630;BME280;42502;40.732;-74.254;2023-04-01T02:51:34;100264.81;;;19.85;34.21
56630;BME280;42502;40.732;-74.254;2023-04-01T02:53:35;100257.13;;;19.82;34.33
56630;BME280;42502;40.732;-74.254;2023-04-01T02:55:36;100258.72;;;19.83;34.50
56630;BME280;42502;40.732;-74.254;2023-04-01T02:57:36;100264.34;;;19.83;34.33
56630;BME280;42502;40.732;-74.254;2023-04-01T02:59:37;100257.56;;;19.84;34.29
56630;BME280;42502;40.732;-74.254;2023-04-01T03:01:38;100256.28;;;19.81;34.37
56630;BME280;42502;40.732;-74.254;2023-04-01T03:03:39;100266.81;;;19.84;34.26
56630;BME280;42502;40.732;-74.254;2023-04-01T03:05:40;100263.16;;;19.84;34.42
56630;BME280;42502;40.732;-74.254;2023-04-01T03:07:41;100262.00;;;19.85;34.47
56630;BME280;42502;40.732;-74.254;2023-04-01T03:09:43;100248.00;;;19.85;34.44
56630;BME280;42502;40.732;-74.254;2023-04-01T03:11:44;100246.72;;;19.82;34.53
56630;BME280;42502;40.732;-74.254;2023-04-01T03:13:45;100235.06;;;19.80;34.64
56630;BME280;42502;40.732;-74.254;2023-04-01T03:15:46;100242.38;;;19.85;34.75
56630;BME280;42502;40.732;-74.254;2023-04-01T03:17:46;100235.13;;;19.84;34.71
56630;BME280;42502;40.732;-74.254;2023-04-01T03:19:47;100233.50;;;19.83;34.72
56630;BME280;42502;40.732;-74.254;2023-04-01T03:21:51;100233.97;;;19.85;34.59
56630;BME280;42502;40.732;-74.254;2023-04-01T03:23:52;100235.13;;;19.84;34.91
56630;BME280;42502;40.732;-74.254;2023-04-01T03:25:56;100238.41;;;19.86;35.02
56630;BME280;42502;40.732;-74.254;2023-04-01T03:27:56;100237.56;;;19.85;34.90
56630;BME280;42502;40.732;-74.254;2023-04-01T03:30:00;100233.97;;;19.85;34.85
56630;BME280;42502;40.732;-74.254;2023-04-01T03:32:00;100248.78;;;19.85;35.14
56630;BME280;42502;40.732;-74.254;2023-04-01T03:34:01;100240.75;;;19.84;34.99
56630;BME280;42502;40.732;-74.254;2023-04-01T03:36:02;100239.94;;;19.83;34.95
56630;BME280;42502;40.732;-74.254;2023-04-01T03:38:06;100247.19;;;19.84;35.25
56630;BME280;42502;40.732;-74.254;2023-04-01T03:40:07;100243.91;;;19.82;35.07
56630;BME280;42502;40.732;-74.254;2023-04-01T03:42:08;100246.81;;;19.86;35.14
56630;BME280;42502;40.732;-74.254;2023-04-01T03:44:12;100236.78;;;19.85;35.21
56630;BME280;42502;40.732;-74.254;2023-04-01T03:46:22;100235.84;;;19.81;34.99
56630;BME280;42502;40.732;-74.254;2023-04-01T03:48:23;100233.16;;;19.84;34.99
56630;BME280;42502;40.732;-74.254;2023-04-01T03:50:23;100227.56;;;19.84;35.24
56630;BME280;42502;40.732;-74.254;2023-04-01T03:52:24;100224.75;;;19.84;35.32
56630;BME280;42502;40.732;-74.254;2023-04-01T03:54:28;100218.22;;;19.80;35.12
56630;BME280;42502;40.732;-74.254;2023-04-01T03:56:29;100224.75;;;19.84;35.42
56630;BME280;42502;40.732;-74.254;2023-04-01T03:58:30;100220.69;;;19.82;35.23
56630;BME280;42502;40.732;-74.254;2023-04-01T04:00:31;100215.50;;;19.84;35.48
56630;BME280;42502;40.732;-74.254;2023-04-01T04:02:32;100219.03;;;19.81;35.45
56630;BME280;42502;40.732;-74.254;2023-04-01T04:04:33;100206.19;;;19.80;35.18
56630;BME280;42502;40.732;-74.254;2023-04-01T04:06:34;100207.81;;;19.81;35.54
56630;BME280;42502;40.732;-74.254;2023-04-01T04:08:35;100206.31;;;19.83;35.22
56630;BME280;42502;40.732;-74.254;2023-04-01T04:10:36;100207.09;;;19.84;35.33
56630;BME280;42502;40.732;-74.254;2023-04-01T04:12:37;100196.63;;;19.81;35.60
56630;BME280;42502;40.732;-74.254;2023-04-01T04:14:38;100213.88;;;19.83;35.47
56630;BME280;42502;40.732;-74.254;2023-04-01T04:16:39;100200.22;;;19.81;35.09
56630;BME280;42502;40.732;-74.254;2023-04-01T04:18:40;100207.81;;;19.81;35.31
56630;BME280;42502;40.732;-74.254;2023-04-01T04:20:45;100196.19;;;19.79;35.08
56630;BME280;42502;40.732;-74.254;2023-04-01T04:22:48;100211.44;;;19.81;35.22
56630;BME280;42502;40.732;-74.254;2023-04-01T04:24:49;100206.19;;;19.80;35.50
56630;BME280;42502;40.732;-74.254;2023-04-01T04:26:50;100199.78;;;19.79;35.55
56630;BME280;42502;40.732;-74.254;2023-04-01T04:28:51;100193.81;;;19.81;35.16
56630;BME280;42502;40.732;-74.254;2023-04-01T04:30:53;100194.97;;;19.80;35.42
56630;BME280;42502;40.732;-74.254;2023-04-01T04:32:53;100201.41;;;19.80;35.18
56630;BME280;42502;40.732;-74.254;2023-04-01T04:34:54;100196.97;;;19.79;35.35
56630;BME280;42502;40.732;-74.254;2023-04-01T04:36:55;100203.03;;;19.81;35.26
56630;BME280;42502;40.732;-74.254;2023-04-01T04:38:56;100197.78;;;19.80;35.45
56630;BME280;42502;40.732;-74.254;2023-04-01T04:40:58;100183.75;;;19.80;35.38
56630;BME280;42502;40.732;-74.254;2023-04-01T04:42:59;100182.84;;;19.76;35.40
56630;BME280;42502;40.732;-74.254;2023-04-01T04:45:00;100191.72;;;19.78;35.18
56630;BME280;42502;40.732;-74.254;2023-04-01T04:47:01;100192.53;;;19.78;35.50
56630;BME280;42502;40.732;-74.254;2023-04-01T04:49:05;100189.72;;;19.78;35.38
56630;BME280;42502;40.732;-74.254;2023-04-01T04:51:06;100173.25;;;19.77;35.22
56630;BME280;42502;40.732;-74.254;2023-04-01T04:53:09;100170.44;;;19.77;35.20
56630;BME280;42502;40.732;-74.254;2023-04-01T04:55:13;100162.03;;;19.77;35.26
56630;BME280;42502;40.732;-74.254;2023-04-01T04:57:17;100158.09;;;19.78;35.46
56630;BME280;42502;40.732;-74.254;2023-04-01T04:59:18;100161.22;;;19.76;35.09
56630;BME280;42502;40.732;-74.254;2023-04-01T05:01:22;100160.44;;;19.76;35.26
56630;BME280;42502;40.732;-74.254;2023-04-01T05:03:23;100154.81;;;19.76;35.48
56630;BME280;42502;40.732;-74.254;2023-04-01T05:05:23;100144.34;;;19.73;35.64
56630;BME280;42502;40.732;-74.254;2023-04-01T05:07:24;100136.38;;;19.75;35.30
56630;BME280;42502;40.732;-74.254;2023-04-01T05:09:28;100126.69;;;19.72;35.25
56630;BME280;42502;40.732;-74.254;2023-04-01T05:11:29;100117.91;;;19.74;35.28
56630;BME280;42502;40.732;-74.254;2023-04-01T05:13:30;100119.13;;;19.73;35.50
56630;BME280;42502;40.732;-74.254;2023-04-01T05:15:31;100118.75;;;19.74;35.20
56630;BME280;42502;40.732;-74.254;2023-04-01T05:17:32;100112.31;;;19.74;35.23
56630;BME280;42502;40.732;-74.254;2023-04-01T05:19:39;100103.81;;;19.70;35.14
56630;BME280;42502;40.732;-74.254;2023-04-01T05:21:39;100101.81;;;19.70;35.43
56630;BME280;42502;40.732;-74.254;2023-04-01T05:23:40;100103.09;;;19.73;35.19
56630;BME280;42502;40.732;-74.254;2023-04-01T05:25:44;100096.22;;;19.70;35.18
56630;BME280;42502;40.732;-74.254;2023-04-01T05:27:45;100088.66;;;19.71;35.42
56630;BME280;42502;40.732;-74.254;2023-04-01T05:29:46;100088.28;;;19.73;35.17
56630;BME280;42502;40.732;-74.254;2023-04-01T05:31:47;100080.25;;;19.71;35.38
56630;BME280;42502;40.732;-74.254;2023-04-01T05:33:48;100083.84;;;19.71;35.13
56630;BME280;42502;40.732;-74.254;2023-04-01T05:35:55;100076.59;;;19.70;35.05
56630;BME280;42502;40.732;-74.254;2023-04-01T05:37:59;100071.00;;;19.70;35.17
56630;BME280;42502;40.732;-74.254;2023-04-01T05:40:00;100073.81;;;19.70;35.27
56630;BME280;42502;40.732;-74.254;2023-04-01T05:42:01;100062.59;;;19.70;35.10
56630;BME280;42502;40.732;-74.254;2023-04-01T05:44:04;100059.78;;;19.70;35.27
56630;BME280;42502;40.732;-74.254;2023-04-01T05:46:05;100059.78;;;19.70;35.24
56630;BME280;42502;40.732;-74.254;2023-04-01T05:48:06;100054.13;;;19.67;35.38
56630;BME280;42502;40.732;-74.254;2023-04-01T05:50:11;100052.13;;;19.67;35.45
56630;BME280;42502;40.732;-74.254;2023-04-01T05:52:14;100035.78;;;19.69;35.28
56630;BME280;42502;40.732;-74.254;2023-04-01T05:54:19;100034.13;;;19.68;35.24
56630;BME280;42502;40.732;-74.254;2023-04-01T05:56:20;100034.94;;;19.69;35.14
56630;BME280;42502;40.732;-74.254;2023-04-01T05:58:21;100035.31;;;19.67;35.30
56630;BME280;42502;40.732;-74.254;2023-04-01T06:00:21;100014.09;;;19.66;35.15
56630;BME280;42502;40.732;-74.254;2023-04-01T06:02:26;100018.50;;;19.67;35.34
56630;BME280;42502;40.732;-74.254;2023-04-01T06:04:32;100013.25;;;19.66;34.97
56630;BME280;42502;40.732;-74.254;2023-04-01T06:06:36;100002.03;;;19.66;35.02
56630;BME280;42502;40.732;-74.254;2023-04-01T06:08:37;99995.25;;;19.67;35.05
56630;BME280;42502;40.732;-74.254;2023-04-01T06:13:17;99988.03;;;19.66;35.03
56630;BME280;42502;40.732;-74.254;2023-04-01T06:15:35;99983.25;;;19.66;35.13
56630;BME280;42502;40.732;-74.254;2023-04-01T06:22:23;99990.75;;;19.62;35.05
56630;BME280;42502;40.732;-74.254;2023-04-01T06:24:52;99991.56;;;19.63;34.87
56630;BME280;42502;40.732;-74.254;2023-04-01T06:27:13;99954.16;;;19.55;35.08
56630;BME280;42502;40.732;-74.254;2023-04-01T06:29:41;99955.50;;;19.61;34.85
56630;BME280;42502;40.732;-74.254;2023-04-01T06:34:38;99937.53;;;19.62;34.90
56630;BME280;42502;40.732;-74.254;2023-04-01T06:47:01;99888.56;;;19.56;34.90
56630;BME280;42502;40.732;-74.254;2023-04-01T06:51:26;99880.88;;;19.53;34.95
56630;BME280;42502;40.732;-74.254;2023-04-01T06:55:42;99881.78;;;19.57;34.82
56630;BME280;42502;40.732;-74.254;2023-04-01T06:57:52;99868.50;;;19.54;34.73
56630;BME280;42502;40.732;-74.254;2023-04-01T06:59:57;99858.09;;;19.55;34.98
56630;BME280;42502;40.732;-74.254;2023-04-01T07:08:28;99839.28;;;19.55;34.91
56630;BME280;42502;40.732;-74.254;2023-04-01T07:12:53;99827.28;;;19.55;35.04
56630;BME280;42502;40.732;-74.254;2023-04-01T07:15:01;99815.28;;;19.54;34.85
56630;BME280;42502;40.732;-74.254;2023-04-01T07:17:27;99818.78;;;19.51;34.78
56630;BME280;42502;40.732;-74.254;2023-04-01T07:19:56;99833.25;;;19.53;34.91
56630;BME280;42502;40.732;-74.254;2023-04-01T07:22:19;99819.25;;;19.53;34.78
56630;BME280;42502;40.732;-74.254;2023-04-01T07:24:33;99825.66;;;19.53;34.86
56630;BME280;42502;40.732;-74.254;2023-04-01T07:26:34;99815.66;;;19.52;34.63
56630;BME280;42502;40.732;-74.254;2023-04-01T07:28:38;99809.59;;;19.50;34.81
56630;BME280;42502;40.732;-74.254;2023-04-01T07:31:07;99797.22;;;19.51;34.73
56630;BME280;42502;40.732;-74.254;2023-04-01T07:35:52;99785.19;;;19.51;34.72
56630;BME280;42502;40.732;-74.254;2023-04-01T07:38:39;99770.00;;;19.52;34.87
56630;BME280;42502;40.732;-74.254;2023-04-01T07:40:21;99763.22;;;19.53;34.81
56630;BME280;42502;40.732;-74.254;2023-04-01T07:45:13;99759.47;;;19.45;34.84
56630;BME280;42502;40.732;-74.254;2023-04-01T07:47:29;99763.97;;;19.50;34.80
56630;BME280;42502;40.732;-74.254;2023-04-01T07:50:02;99745.84;;;19.44;35.00
56630;BME280;42502;40.732;-74.254;2023-04-01T08:02:10;99736.31;;;19.48;34.68
56630;BME280;42502;40.732;-74.254;2023-04-01T08:07:12;99725.03;;;19.45;34.86
56630;BME280;42502;40.732;-74.254;2023-04-01T08:11:19;99733.06;;;19.46;35.03
56630;BME280;42502;40.732;-74.254;2023-04-01T08:18:45;99707.47;;;19.48;34.61
56630;BME280;42502;40.732;-74.254;2023-04-01T08:21:05;99691.03;;;19.46;34.81
56630;BME280;42502;40.732;-74.254;2023-04-01T08:23:19;99690.19;;;19.42;34.73
56630;BME280;42502;40.732;-74.254;2023-04-01T08:25:27;99681.84;;;19.46;34.63
56630;BME280;42502;40.732;-74.254;2023-04-01T08:32:25;99642.19;;;19.44;34.62
56630;BME280;42502;40.732;-74.254;2023-04-01T08:34:40;99632.16;;;19.43;34.91
56630;BME280;42502;40.732;-74.254;2023-04-01T08:36:46;99631.00;;;19.44;34.53
56630;BME280;42502;40.732;-74.254;2023-04-01T08:39:16;99632.97;;;19.43;34.86
56630;BME280;42502;40.732;-74.254;2023-04-01T08:56:23;99561.72;;;19.41;34.70
56630;BME280;42502;40.732;-74.254;2023-04-01T09:00:31;99551.38;;;19.45;34.66
56630;BME280;42502;40.732;-74.254;2023-04-01T09:31:37;99487.28;;;19.40;34.61
56630;BME280;42502;40.732;-74.254;2023-04-01T09:35:38;99479.69;;;19.40;34.65
56630;BME280;42502;40.732;-74.254;2023-04-01T09:40:18;99476.06;;;19.40;34.57
56630;BME280;42502;40.732;-74.254;2023-04-01T09:44:59;99479.25;;;19.38;34.44
56630;BME280;42502;40.732;-74.254;2023-04-01T09:50:34;99474.44;;;19.39;34.43
56630;BME280;42502;40.732;-74.254;2023-04-01T09:52:50;99470.47;;;19.40;34.63
56630;BME280;42502;40.732;-74.254;2023-04-01T09:59:47;99466.03;;;19.39;34.74
56630;BME280;42502;40.732;-74.254;2023-04-01T10:12:05;99452.03;;;19.39;34.68
56630;BME280;42502;40.732;-74.254;2023-04-01T10:35:59;99378.78;;;19.33;34.43
56630;BME280;42502;40.732;-74.254;2023-04-01T10:50:24;99374.38;;;19.35;34.46
56630;BME280;42502;40.732;-74.254;2023-04-01T11:22:50;99335.13;;;19.32;34.77
56630;BME280;42502;40.732;-74.254;2023-04-01T11:46:38;99375.97;;;19.33;34.54
56630;BME280;42502;40.732;-74.254;2023-04-01T12:09:58;99271.16;;;19.34;34.90
56630;BME280;42502;40.732;-74.254;2023-04-01T12:40:56;99191.19;;;19.37;35.13
56630;BME280;42502;40.732;-74.254;2023-04-01T13:11:26;99112.00;;;19.40;35.69
56630;BME280;42502;40.732;-74.254;2023-04-01T13:16:13;99120.81;;;19.38;35.47
56630;BME280;42502;40.732;-74.254;2023-04-01T13:18:42;99124.84;;;19.41;35.60
56630;BME280;42502;40.732;-74.254;2023-04-01T13:23:27;99112.44;;;19.42;35.53
56630;BME280;42502;40.732;-74.254;2023-04-01T13:28:41;99116.84;;;19.43;35.65
56630;BME280;42502;40.732;-74.254;2023-04-01T13:30:42;99109.25;;;19.43;35.66
56630;BME280;42502;40.732;-74.254;2023-04-01T13:32:59;99110.06;;;19.44;35.80
56630;BME280;42502;40.732;-74.254;2023-04-01T13:39:47;99106.44;;;19.43;35.76
56630;BME280;42502;40.732;-74.254;2023-04-01T13:48:22;99093.25;;;19.44;35.92
56630;BME280;42502;40.732;-74.254;2023-04-01T14:02:28;99089.25;;;19.45;36.14
56630;BME280;42502;40.732;-74.254;2023-04-01T14:04:50;99066.47;;;19.46;35.96
56630;BME280;42502;40.732;-74.254;2023-04-01T14:11:45;99074.47;;;19.48;36.01
56630;BME280;42502;40.732;-74.254;2023-04-01T14:14:20;99071.25;;;19.42;35.95
56630;BME280;42502;40.732;-74.254;2023-04-01T14:29:28;99042.09;;;19.47;36.30
56630;BME280;42502;40.732;-74.254;2023-04-01T14:31:53;99047.28;;;19.48;36.02
56630;BME280;42502;40.732;-74.254;2023-04-01T14:34:12;99034.09;;;19.49;36.30
56630;BME280;42502;40.732;-74.254;2023-04-01T14:41:20;99016.91;;;19.50;36.27
56630;BME280;42502;40.732;-74.254;2023-04-01T14:48:52;99009.28;;;19.51;36.42
56630;BME280;42502;40.732;-74.254;2023-04-01T14:51:02;99010.13;;;19.51;36.33
56630;BME280;42502;40.732;-74.254;2023-04-01T14:57:44;98995.28;;;19.51;36.20
56630;BME280;42502;40.732;-74.254;2023-04-01T15:00:13;98977.19;;;19.38;36.43
56630;BME280;42502;40.732;-74.254;2023-04-01T15:02:40;98978.13;;;19.56;36.09
56630;BME280;42502;40.732;-74.254;2023-04-01T15:07:21;98993.31;;;19.55;36.35
56630;BME280;42502;40.732;-74.254;2023-04-01T15:11:59;98982.56;;;19.57;36.30
56630;BME280;42502;40.732;-74.254;2023-04-01T15:16:34;98979.78;;;19.61;36.55
56630;BME280;42502;40.732;-74.254;2023-04-01T15:19:01;98969.72;;;19.56;36.34
56630;BME280;42502;40.732;-74.254;2023-04-01T15:30:03;98965.75;;;19.57;36.12
56630;BME280;42502;40.732;-74.254;2023-04-01T15:32:44;98952.56;;;19.61;36.14
56630;BME280;42502;40.732;-74.254;2023-04-01T15:37:48;98930.56;;;19.63;36.13
56630;BME280;42502;40.732;-74.254;2023-04-01T15:46:47;98937.81;;;19.68;36.44
56630;BME280;42502;40.732;-74.254;2023-04-01T15:56:13;98902.22;;;19.76;36.42
56630;BME280;42502;40.732;-74.254;2023-04-01T15:59:00;98907.84;;;19.76;36.33
56630;BME280;42502;40.732;-74.254;2023-04-01T16:12:47;98839.09;;;19.93;37.23
56630;BME280;42502;40.732;-74.254;2023-04-01T16:19:41;98838.34;;;20.03;37.43
56630;BME280;42502;40.732;-74.254;2023-04-01T16:21:52;98829.13;;;20.06;37.50
56630;BME280;42502;40.732;-74.254;2023-04-01T16:24:00;98824.72;;;20.09;37.66
56630;BME280;42502;40.732;-74.254;2023-04-01T16:26:28;98818.72;;;20.10;37.51
56630;BME280;42502;40.732;-74.254;2023-04-01T16:28:42;98814.75;;;20.15;37.61
56630;BME280;42502;40.732;-74.254;2023-04-01T16:35:37;98830.00;;;20.21;37.85
56630;BME280;42502;40.732;-74.254;2023-04-01T16:38:18;98825.97;;;20.22;37.85
56630;BME280;42502;40.732;-74.254;2023-04-01T16:40:58;98815.97;;;20.21;37.65
56630;BME280;42502;40.732;-74.254;2023-04-01T16:45:50;98838.00;;;20.26;37.88
56630;BME280;42502;40.732;-74.254;2023-04-01T16:47:56;98827.19;;;20.28;38.24
56630;BME280;42502;40.732;-74.254;2023-04-01T16:50:06;98835.59;;;20.28;38.00
56630;BME280;42502;40.732;-74.254;2023-04-01T16:55:04;98893.28;;;20.29;37.92
56630;BME280;42502;40.732;-74.254;2023-04-01T16:57:52;98893.69;;;20.31;37.78
56630;BME280;42502;40.732;-74.254;2023-04-01T17:02:23;98894.50;;;20.35;38.07
56630;BME280;42502;40.732;-74.254;2023-04-01T17:04:48;98898.09;;;20.36;37.92
56630;BME280;42502;40.732;-74.254;2023-04-01T17:09:31;98882.09;;;20.36;37.96
56630;BME280;42502;40.732;-74.254;2023-04-01T17:13:47;98854.06;;;20.40;38.32
56630;BME280;42502;40.732;-74.254;2023-04-01T17:18:39;98847.25;;;20.41;38.33
56630;BME280;42502;40.732;-74.254;2023-04-01T17:28:06;98797.97;;;20.44;38.05
56630;BME280;42502;40.732;-74.254;2023-04-01T17:30:27;98773.16;;;20.46;37.99
56630;BME280;42502;40.732;-74.254;2023-04-01T17:39:25;98755.50;;;20.49;38.13
56630;BME280;42502;40.732;-74.254;2023-04-01T17:44:08;98751.53;;;20.50;38.04
56630;BME280;42502;40.732;-74.254;2023-04-01T17:48:35;98723.44;;;20.57;38.25
56630;BME280;42502;40.732;-74.254;2023-04-01T17:50:52;98703.41;;;20.58;38.06
56630;BME280;42502;40.732;-74.254;2023-04-01T18:00:39;98672.97;;;20.71;38.01
56630;BME280;42502;40.732;-74.254;2023-04-01T18:04:56;98659.31;;;20.81;38.01
56630;BME280;42502;40.732;-74.254;2023-04-01T18:07:35;98660.94;;;20.78;37.93
56630;BME280;42502;40.732;-74.254;2023-04-01T18:17:25;98637.22;;;20.97;37.85
56630;BME280;42502;40.732;-74.254;2023-04-01T18:21:53;98627.19;;;21.03;37.53
56630;BME280;42502;40.732;-74.254;2023-04-01T18:23:57;98627.97;;;21.07;37.56
56630;BME280;42502;40.732;-74.254;2023-04-01T18:26:10;98631.97;;;21.06;37.60
56630;BME280;42502;40.732;-74.254;2023-04-01T18:28:42;98624.34;;;21.10;37.64
56630;BME280;42502;40.732;-74.254;2023-04-01T18:30:54;98619.09;;;21.16;37.54
56630;BME280;42502;40.732;-74.254;2023-04-01T18:35:24;98603.81;;;21.21;37.45
56630;BME280;42502;40.732;-74.254;2023-04-01T18:37:32;98599.78;;;21.25;37.42
56630;BME280;42502;40.732;-74.254;2023-04-01T18:39:40;98586.97;;;21.24;37.59
56630;BME280;42502;40.732;-74.254;2023-04-01T18:42:08;98589.34;;;21.29;37.49
56630;BME280;42502;40.732;-74.254;2023-04-01T18:49:21;98555.56;;;21.40;37.08
56630;BME280;42502;40.732;-74.254;2023-04-01T18:52:21;98536.72;;;21.41;37.55
56630;BME280;42502;40.732;-74.254;2023-04-01T18:54:01;98532.69;;;21.45;37.54
56630;BME280;42502;40.732;-74.254;2023-04-01T18:56:15;98532.28;;;21.51;37.31
56630;BME280;42502;40.732;-74.254;2023-04-01T18:58:35;98526.63;;;21.54;37.22
56630;BME280;42502;40.732;-74.254;2023-04-01T19:00:41;98508.94;;;21.57;37.25
56630;BME280;42502;40.732;-74.254;2023-04-01T19:02:50;98500.50;;;21.61;37.18
56630;BME280;42502;40.732;-74.254;2023-04-01T19:05:10;98507.69;;;21.62;37.10
56630;BME280;42502;40.732;-74.254;2023-04-01T19:09:48;98487.97;;;21.69;37.28
56630;BME280;42502;40.732;-74.254;2023-04-01T19:12:37;98484.75;;;21.71;37.13
56630;BME280;42502;40.732;-74.254;2023-04-01T19:21:44;98470.94;;;21.87;37.05
56630;BME280;42502;40.732;-74.254;2023-04-01T19:26:04;98471.72;;;21.91;37.10
56630;BME280;42502;40.732;-74.254;2023-04-01T19:49:22;98380.59;;;22.19;37.08
56630;BME280;42502;40.732;-74.254;2023-04-01T19:51:50;98356.47;;;22.22;37.07